Time;durP1;ratioP1;P1;durP2;ratioP2;P2;SDS_P1;SDS_P2;PMS_P1;PMS_P2;Temp;Humidity;BMP_temperature;BMP_pressure;BME280_temperature;BME280_humidity;BME280_pressure;Samples;Min_cycle;Max_cycle;Signal;HPM_P1;HPM_P2
2022/01/15 00:02:10;;;;;;;;;91.00;65.50;;;;;;;;4683815;30;29879;-85
2022/01/15 00:04:35;;;;;;;;;83.67;64.33;;;;;;;;4684239;30;28425;-85
2022/01/15 00:07:00;;;;;;;;;94.00;67.00;;;;;;;;4683376;30;28504;-85
2022/01/15 00:09:25;;;;;;;;;91.00;68.00;;;;;;;;4687156;30;28534;-85
2022/01/15 00:11:52;;;;;;;;;95.00;67.67;;;;;;;;4683287;30;30087;-85
2022/01/15 00:14:30;;;;;;;;;98.50;70.50;;;;;;;;4694550;30;28609;-85
2022/01/15 00:16:58;;;;;;;;;98.25;74.75;;;;;;;;4681533;30;28527;-85
2022/01/15 00:19:40;;;;;;;;;92.25;71.00;;;;;;;;4684755;30;28346;-85
2022/01/15 00:22:05;;;;;;;;;98.00;75.00;;;;;;;;4684352;30;28764;-84
2022/01/15 00:24:30;;;;;;;;;95.33;74.33;;;;;;;;4700156;30;28594;-85
2022/01/15 00:26:56;;;;;;;;;99.33;77.33;;;;;;;;4702081;30;28654;-85
2022/01/15 00:29:21;;;;;;;;;101.00;73.00;;;;;;;;4683905;30;28258;-85
2022/01/15 00:31:46;;;;;;;;;97.67;78.00;;;;;;;;4684605;30;28469;-85
2022/01/15 00:34:11;;;;;;;;;98.00;75.00;;;;;;;;4684024;30;28722;-85
2022/01/15 00:36:37;;;;;;;;;94.00;71.33;;;;;;;;4689917;30;46703;-84
2022/01/15 00:39:02;;;;;;;;;98.00;68.67;;;;;;;;4681354;30;46946;-84
2022/01/15 00:41:27;;;;;;;;;94.00;69.75;;;;;;;;4700209;30;28576;-84
2022/01/15 00:43:53;;;;;;;;;98.00;70.67;;;;;;;;4691672;30;28257;-84
2022/01/15 00:46:18;;;;;;;;;93.50;67.00;;;;;;;;3494666;30;37303980;-84
2022/01/15 00:48:43;;;;;;;;;94.33;68.00;;;;;;;;4719859;30;8847;-85
2022/01/15 00:51:08;;;;;;;;;87.33;68.00;;;;;;;;4708950;30;9590;-84
2022/01/15 00:53:34;;;;;;;;;98.00;71.00;;;;;;;;4711094;30;9883;-85
2022/01/15 00:55:59;;;;;;;;;97.67;74.33;;;;;;;;4702901;30;11222;-85
2022/01/15 00:58:24;;;;;;;;;95.00;68.67;;;;;;;;4713556;30;11882;-85
2022/01/15 01:00:49;;;;;;;;;98.00;68.67;;;;;;;;4709454;30;11812;-85
2022/01/15 01:03:14;;;;;;;;;92.00;68.00;;;;;;;;4730892;30;8950;-85
2022/01/15 01:05:40;;;;;;;;;91.33;66.67;;;;;;;;4727488;30;11779;-84
2022/01/15 01:08:05;;;;;;;;;97.00;68.00;;;;;;;;4735585;30;8834;-84
2022/01/15 01:13:32;;;;;;;;;93.50;65.50;;;;;;;;4713348;30;8836;-85
2022/01/15 01:23:56;;;;;;;;;91.75;70.00;;;;;;;;4705251;30;8855;-85
2022/01/15 01:26:27;;;;;;;;;99.33;74.33;;;;;;;;4713096;30;8919;-85
2022/01/15 01:29:03;;;;;;;;;93.75;69.25;;;;;;;;4720118;30;11875;-85
2022/01/15 01:31:40;;;;;;;;;97.75;75.75;;;;;;;;4704285;30;8862;-85
2022/01/15 01:34:12;;;;;;;;;92.50;70.25;;;;;;;;4695595;30;8854;-85
2022/01/15 01:42:11;;;;;;;;;90.00;68.75;;;;;;;;4702573;30;9797;-85
2022/01/15 01:44:40;;;;;;;;;93.25;68.50;;;;;;;;4702366;30;8898;-85
2022/01/15 01:47:21;;;;;;;;;101.50;79.50;;;;;;;;4703179;30;8858;-84
2022/01/15 01:49:47;;;;;;;;;100.25;70.00;;;;;;;;4714853;30;8862;-85
2022/01/15 01:52:12;;;;;;;;;107.50;78.75;;;;;;;;4700762;30;8916;-85
2022/01/15 01:54:37;;;;;;;;;105.00;76.00;;;;;;;;4718565;30;8883;-85
2022/01/15 01:57:03;;;;;;;;;92.67;69.67;;;;;;;;4710397;30;8944;-85
2022/01/15 01:59:28;;;;;;;;;101.50;74.00;;;;;;;;4698625;30;11881;-85
2022/01/15 02:01:53;;;;;;;;;89.75;64.00;;;;;;;;4710295;30;9778;-85
2022/01/15 02:04:19;;;;;;;;;92.33;68.00;;;;;;;;4700932;30;8897;-84
2022/01/15 02:06:44;;;;;;;;;90.00;66.00;;;;;;;;4707770;30;10567;-85
2022/01/15 02:09:10;;;;;;;;;94.25;70.00;;;;;;;;4717445;30;9006;-85
2022/01/15 02:11:35;;;;;;;;;92.00;66.50;;;;;;;;4706366;30;9579;-85
2022/01/15 02:14:00;;;;;;;;;92.75;66.25;;;;;;;;4709091;30;8913;-85
2022/01/15 02:16:26;;;;;;;;;94.33;67.67;;;;;;;;4713182;30;9098;-85
2022/01/15 02:18:54;;;;;;;;;95.00;68.00;;;;;;;;4701081;30;11887;-85
2022/01/15 02:23:46;;;;;;;;;89.25;68.00;;;;;;;;4711929;30;8925;-85
2022/01/15 02:26:30;;;;;;;;;95.75;68.25;;;;;;;;4713237;30;9749;-85
2022/01/15 02:28:59;;;;;;;;;97.25;71.25;;;;;;;;4281503;30;13171940;-84
2022/01/15 02:35:14;;;;;;;;;;;;;;;;;;1620051;30;139521518;-85
2022/01/15 02:40:48;;;;;;;;;25.50;24.00;;;;;;;;3;105393116;112860535;-84
2022/01/15 02:45:43;;;;;;;;;74.50;52.00;;;;;;;;3;93628850;107120667;-84
2022/01/15 02:48:12;;;;;;;;;88.00;73.25;;;;;;;;4627292;30;2131744;-85
2022/01/15 02:50:38;;;;;;;;;93.00;69.25;;;;;;;;4689260;30;28510;-85
2022/01/15 02:53:04;;;;;;;;;97.50;74.25;;;;;;;;4682627;30;28437;-85
2022/01/15 02:55:29;;;;;;;;;95.25;72.50;;;;;;;;4687400;30;28448;-84
2022/01/15 02:57:54;;;;;;;;;89.50;65.00;;;;;;;;4696864;30;29914;-85
2022/01/15 03:00:20;;;;;;;;;90.50;67.50;;;;;;;;4696970;30;29654;-85
2022/01/15 03:02:45;;;;;;;;;93.00;65.75;;;;;;;;4698097;30;28394;-85
2022/01/15 03:05:11;;;;;;;;;88.67;65.67;;;;;;;;4694274;30;28503;-85
2022/01/15 03:07:36;;;;;;;;;93.75;66.25;;;;;;;;4685799;30;29996;-85
2022/01/15 03:10:03;;;;;;;;;92.00;66.00;;;;;;;;4695108;30;28311;-84
2022/01/15 03:12:28;;;;;;;;;89.50;66.25;;;;;;;;4689239;30;28487;-85
2022/01/15 03:14:59;;;;;;;;;94.00;65.67;;;;;;;;4698199;30;28277;-85
2022/01/15 03:17:24;;;;;;;;;91.00;65.75;;;;;;;;4699339;30;29172;-84
2022/01/15 03:19:49;;;;;;;;;90.00;68.00;;;;;;;;4696412;30;28513;-85
2022/01/15 03:22:15;;;;;;;;;95.67;70.67;;;;;;;;4693461;30;28233;-85
2022/01/15 03:24:40;;;;;;;;;94.33;68.00;;;;;;;;4695777;30;28464;-84
2022/01/15 03:27:05;;;;;;;;;91.00;66.67;;;;;;;;4682377;30;28459;-85
2022/01/15 03:29:30;;;;;;;;;90.00;66.67;;;;;;;;4682373;30;28653;-85
2022/01/15 03:31:56;;;;;;;;;96.33;67.67;;;;;;;;4700772;30;28344;-85
2022/01/15 03:34:21;;;;;;;;;96.67;70.67;;;;;;;;4700385;30;28799;-84
2022/01/15 03:36:46;;;;;;;;;95.33;68.67;;;;;;;;4684868;30;29687;-85
2022/01/15 03:39:11;;;;;;;;;87.67;65.67;;;;;;;;4683692;30;28310;-85
2022/01/15 03:41:36;;;;;;;;;93.00;67.67;;;;;;;;4698360;30;28273;-85
2022/01/15 03:44:02;;;;;;;;;86.33;65.00;;;;;;;;4700286;30;28369;-85
2022/01/15 03:46:27;;;;;;;;;91.75;68.00;;;;;;;;4688053;30;30111;-85
2022/01/15 03:48:53;;;;;;;;;95.00;68.00;;;;;;;;4702351;30;27740;-85
2022/01/15 03:51:19;;;;;;;;;97.00;74.25;;;;;;;;4689709;30;28253;-84
2022/01/15 03:53:44;;;;;;;;;99.00;73.00;;;;;;;;4683834;30;28606;-85
2022/01/15 03:56:09;;;;;;;;;102.25;82.25;;;;;;;;4686678;30;30025;-85
2022/01/15 03:58:35;;;;;;;;;98.67;77.00;;;;;;;;4696705;30;28439;-85
2022/01/15 04:01:00;;;;;;;;;103.33;80.33;;;;;;;;4697783;30;28611;-85
2022/01/15 04:03:25;;;;;;;;;102.00;80.67;;;;;;;;4702414;30;28531;-85
2022/01/15 04:05:50;;;;;;;;;107.00;86.67;;;;;;;;4701919;30;28553;-85
2022/01/15 04:08:16;;;;;;;;;110.00;92.00;;;;;;;;4699869;30;29769;-85
2022/01/15 04:10:42;;;;;;;;;114.33;88.00;;;;;;;;4692541;30;28641;-85
2022/01/15 04:13:07;;;;;;;;;114.25;92.00;;;;;;;;4695289;30;28813;-85
2022/01/15 04:15:32;;;;;;;;;106.67;86.33;;;;;;;;4684751;30;28476;-84
2022/01/15 04:17:58;;;;;;;;;121.00;94.33;;;;;;;;4684730;30;28520;-85
2022/01/15 04:20:23;;;;;;;;;112.75;92.25;;;;;;;;4692923;30;32235;-85
2022/01/15 04:22:50;;;;;;;;;103.67;80.67;;;;;;;;4698413;30;28384;-85
2022/01/15 04:25:17;;;;;;;;;115.00;90.75;;;;;;;;4691909;30;28570;-85
2022/01/15 04:27:44;;;;;;;;;119.00;96.50;;;;;;;;4690379;30;28910;-85
2022/01/15 04:30:11;;;;;;;;;110.25;93.00;;;;;;;;4688310;30;28416;-85
2022/01/15 04:32:37;;;;;;;;;106.25;87.00;;;;;;;;4684196;30;28503;-84
2022/01/15 04:35:02;;;;;;;;;108.33;91.67;;;;;;;;4683205;30;30922;-85
2022/01/15 04:37:40;;;;;;;;;107.00;89.00;;;;;;;;4688850;30;28347;-84
2022/01/15 04:40:06;;;;;;;;;113.00;92.75;;;;;;;;4689049;30;28432;-85
2022/01/15 04:42:32;;;;;;;;;111.00;93.75;;;;;;;;4682902;30;28261;-84
2022/01/15 04:44:57;;;;;;;;;125.25;98.75;;;;;;;;4683585;30;28399;-85
2022/01/15 04:47:23;;;;;;;;;122.33;96.67;;;;;;;;4672611;30;28430;-85
2022/01/15 04:49:48;;;;;;;;;115.50;98.25;;;;;;;;4675243;30;28386;-85
2022/01/15 04:52:13;;;;;;;;;119.50;102.00;;;;;;;;4668320;30;28599;-85
2022/01/15 04:54:39;;;;;;;;;142.67;106.00;;;;;;;;4683987;30;28416;-84
2022/01/15 04:57:04;;;;;;;;;127.33;102.33;;;;;;;;4674347;30;28395;-85
2022/01/15 04:59:29;;;;;;;;;120.67;102.00;;;;;;;;4681847;30;28466;-85
2022/01/15 05:01:54;;;;;;;;;139.00;104.00;;;;;;;;4699505;30;28390;-85
2022/01/15 05:04:20;;;;;;;;;127.67;106.67;;;;;;;;4701357;30;28353;-85
2022/01/15 05:06:45;;;;;;;;;137.00;109.67;;;;;;;;4701395;30;28527;-85
2022/01/15 05:09:10;;;;;;;;;121.00;99.00;;;;;;;;4684336;30;28550;-84
2022/01/15 05:11:47;;;;;;;;;135.50;97.50;;;;;;;;4676384;30;28743;-85
2022/01/15 05:16:32;;;;;;;;;;;;;;;;;;2911986;30;77912607;-84
2022/01/15 05:21:50;;;;;;;;;54.00;39.00;;;;;;;;3;91054649;117898395;-84
2022/01/15 05:27:51;;;;;;;;;95.50;82.50;;;;;;;;3;114883996;123287032;-84
2022/01/15 05:33:22;;;;;;;;;95.50;75.00;;;;;;;;3;102207138;111716035;-85
2022/01/15 05:39:20;;;;;;;;;86.00;77.00;;;;;;;;3;111072418;121039056;-84
2022/01/15 05:45:30;;;;;;;;;95.50;78.50;;;;;;;;3;122999030;130102177;-84
2022/01/15 05:52:00;;;;;;;;;65.50;35.00;;;;;;;;3;130554721;132203794;-85
2022/01/15 05:55:54;;;;;;;;;;;;;;;;;;3;113678191;120305721;-84
2022/01/15 05:58:19;;;;;;;;;117.75;98.25;;;;;;;;4711242;30;14009;-84
2022/01/15 06:00:45;;;;;;;;;120.33;97.67;;;;;;;;4716561;30;8871;-84
2022/01/15 06:03:10;;;;;;;;;121.75;91.50;;;;;;;;4719487;30;8970;-84
2022/01/15 06:05:35;;;;;;;;;106.33;85.00;;;;;;;;4706522;30;8944;-84
2022/01/15 06:08:01;;;;;;;;;119.00;95.33;;;;;;;;4701648;30;12001;-84
2022/01/15 06:10:26;;;;;;;;;107.67;93.00;;;;;;;;4707671;30;8933;-84
2022/01/15 06:12:51;;;;;;;;;112.00;88.00;;;;;;;;4711317;30;11940;-84
2022/01/15 06:15:16;;;;;;;;;112.33;90.00;;;;;;;;4700810;30;8861;-84
2022/01/15 06:17:42;;;;;;;;;111.33;93.33;;;;;;;;4701740;30;8876;-84
2022/01/15 06:20:08;;;;;;;;;112.50;90.50;;;;;;;;4703764;30;11952;-84
2022/01/15 06:22:33;;;;;;;;;129.75;101.00;;;;;;;;4712553;30;8866;-84
2022/01/15 06:24:58;;;;;;;;;120.00;98.00;;;;;;;;4710734;30;8869;-84
2022/01/15 06:27:24;;;;;;;;;137.67;102.33;;;;;;;;4702419;30;11888;-84
2022/01/15 06:29:49;;;;;;;;;122.67;103.00;;;;;;;;4707025;30;8855;-84
2022/01/15 06:32:14;;;;;;;;;129.00;106.00;;;;;;;;4700485;30;8885;-84
2022/01/15 06:34:39;;;;;;;;;132.00;107.00;;;;;;;;4703891;30;8906;-84
2022/01/15 06:37:05;;;;;;;;;122.00;102.67;;;;;;;;4718867;30;8871;-84
2022/01/15 06:39:31;;;;;;;;;115.00;101.75;;;;;;;;4717563;30;11988;-84
2022/01/15 06:41:56;;;;;;;;;123.25;99.75;;;;;;;;4707141;30;8961;-84
2022/01/15 06:44:21;;;;;;;;;115.67;90.67;;;;;;;;4698623;30;8889;-84
2022/01/15 06:46:46;;;;;;;;;129.67;100.67;;;;;;;;4702556;30;8885;-84
2022/01/15 06:49:12;;;;;;;;;115.33;97.33;;;;;;;;4718470;30;8867;-84
2022/01/15 06:51:37;;;;;;;;;117.67;100.33;;;;;;;;4713911;30;8905;-84
2022/01/15 06:54:02;;;;;;;;;131.33;101.33;;;;;;;;4701417;30;8980;-84
2022/01/15 06:56:27;;;;;;;;;123.67;93.67;;;;;;;;4702082;30;8879;-84
2022/01/15 06:58:53;;;;;;;;;125.67;103.33;;;;;;;;4705001;30;8889;-85
2022/01/15 07:01:18;;;;;;;;;125.75;99.75;;;;;;;;4702945;30;8871;-84
2022/01/15 07:03:43;;;;;;;;;140.33;114.00;;;;;;;;4713183;30;8941;-84
2022/01/15 07:06:08;;;;;;;;;137.00;110.00;;;;;;;;4705285;30;9411;-83
2022/01/15 07:08:34;;;;;;;;;124.67;103.00;;;;;;;;4706019;30;11914;-83
2022/01/15 07:10:59;;;;;;;;;158.67;115.00;;;;;;;;4714480;30;8904;-83
2022/01/15 07:13:26;;;;;;;;;133.33;116.33;;;;;;;;4708217;30;8930;-83
2022/01/15 07:15:52;;;;;;;;;148.25;117.50;;;;;;;;4716775;30;8870;-83
2022/01/15 07:18:17;;;;;;;;;150.33;112.33;;;;;;;;4703895;30;8881;-83
2022/01/15 07:20:43;;;;;;;;;131.00;111.00;;;;;;;;4709070;30;8975;-83
2022/01/15 07:23:08;;;;;;;;;152.00;111.50;;;;;;;;4719639;30;9613;-83
2022/01/15 07:25:33;;;;;;;;;124.00;110.67;;;;;;;;4705476;30;8916;-83
2022/01/15 07:27:58;;;;;;;;;140.00;102.33;;;;;;;;4703238;30;11902;-83
2022/01/15 07:30:24;;;;;;;;;151.67;111.67;;;;;;;;4704023;30;8949;-84
2022/01/15 07:32:50;;;;;;;;;135.25;106.25;;;;;;;;4702089;30;8866;-83
2022/01/15 07:35:15;;;;;;;;;129.25;101.25;;;;;;;;4702682;30;8881;-84
2022/01/15 07:37:40;;;;;;;;;145.00;106.67;;;;;;;;4701197;30;8917;-84
2022/01/15 07:40:06;;;;;;;;;135.67;105.33;;;;;;;;4702022;30;8957;-84
2022/01/15 07:42:36;;;;;;;;;126.50;100.75;;;;;;;;4705242;30;11883;-84
2022/01/15 07:45:03;;;;;;;;;136.50;96.75;;;;;;;;4703591;30;8845;-85
2022/01/15 07:47:28;;;;;;;;;135.00;102.25;;;;;;;;4702436;30;8918;-84
2022/01/15 07:49:53;;;;;;;;;133.00;103.67;;;;;;;;4702889;30;8908;-85
2022/01/15 07:52:19;;;;;;;;;139.33;105.33;;;;;;;;4706409;30;8895;-84
2022/01/15 07:54:44;;;;;;;;;116.75;99.50;;;;;;;;4702235;30;9037;-84
2022/01/15 07:57:09;;;;;;;;;112.25;94.50;;;;;;;;4693939;30;8885;-84
2022/01/15 07:59:35;;;;;;;;;122.67;100.67;;;;;;;;4699868;30;8968;-84
2022/01/15 08:02:00;;;;;;;;;121.33;104.67;;;;;;;;4701858;30;8897;-84
2022/01/15 08:04:25;;;;;;;;;128.33;102.33;;;;;;;;4700587;30;8970;-84
2022/01/15 08:06:50;;;;;;;;;126.67;99.00;;;;;;;;4702577;30;8894;-84
2022/01/15 08:09:16;;;;;;;;;127.00;100.00;;;;;;;;4702660;30;10434;-83
2022/01/15 08:11:41;;;;;;;;;125.33;102.67;;;;;;;;4701600;30;10955;-83
2022/01/15 08:14:06;;;;;;;;;113.33;88.67;;;;;;;;4701054;30;9007;-83
2022/01/15 08:16:31;;;;;;;;;124.33;100.33;;;;;;;;4702855;30;8865;-83
2022/01/15 08:18:57;;;;;;;;;131.00;104.33;;;;;;;;4701137;30;8915;-83
2022/01/15 08:21:22;;;;;;;;;128.00;102.00;;;;;;;;4698332;30;12290;-82
2022/01/15 08:23:47;;;;;;;;;110.67;83.00;;;;;;;;4702537;30;8888;-83
2022/01/15 08:26:12;;;;;;;;;127.00;102.33;;;;;;;;4702681;30;8858;-83
2022/01/15 08:28:37;;;;;;;;;112.00;96.00;;;;;;;;4698217;30;8885;-83
2022/01/15 08:31:04;;;;;;;;;102.33;83.67;;;;;;;;4697475;30;9619;-83
2022/01/15 08:33:29;;;;;;;;;122.50;93.25;;;;;;;;4706310;30;8893;-83
2022/01/15 08:35:54;;;;;;;;;108.33;93.67;;;;;;;;4703958;30;8925;-83
2022/01/15 08:38:19;;;;;;;;;104.67;87.67;;;;;;;;4701239;30;11828;-84
2022/01/15 08:40:45;;;;;;;;;115.33;94.00;;;;;;;;4716212;30;8855;-84
2022/01/15 08:43:10;;;;;;;;;114.00;96.67;;;;;;;;4710712;30;11600;-89
2022/01/15 08:45:38;;;;;;;;;109.67;89.00;;;;;;;;4704288;30;8915;-82
2022/01/15 08:48:04;;;;;;;;;107.50;90.50;;;;;;;;4704127;30;8845;-82
2022/01/15 08:50:29;;;;;;;;;107.50;89.25;;;;;;;;4704510;30;8886;-81
2022/01/15 08:52:54;;;;;;;;;112.00;93.33;;;;;;;;4711959;30;8898;-82
2022/01/15 08:55:26;;;;;;;;;106.67;87.67;;;;;;;;4702545;30;11097;-82
2022/01/15 08:57:51;;;;;;;;;110.00;89.50;;;;;;;;4708176;30;8880;-82
2022/01/15 09:00:17;;;;;;;;;117.00;87.67;;;;;;;;4699359;30;8897;-82
2022/01/15 09:02:42;;;;;;;;;121.00;94.25;;;;;;;;4696916;30;8858;-83
2022/01/15 09:05:08;;;;;;;;;110.25;90.75;;;;;;;;4697279;30;9578;-82
2022/01/15 09:07:34;;;;;;;;;104.50;87.25;;;;;;;;4697501;30;8903;-83
2022/01/15 09:09:59;;;;;;;;;113.25;91.75;;;;;;;;4701279;30;8960;-82
2022/01/15 09:12:24;;;;;;;;;113.33;93.00;;;;;;;;4701690;30;8882;-81
2022/01/15 09:14:52;;;;;;;;;118.25;93.25;;;;;;;;4709015;30;11224;-81
2022/01/15 09:17:18;;;;;;;;;109.75;86.75;;;;;;;;4702378;30;8861;-82
2022/01/15 09:19:43;;;;;;;;;113.50;90.50;;;;;;;;4701992;30;8872;-81
2022/01/15 09:22:11;;;;;;;;;111.25;84.50;;;;;;;;4709944;30;8941;-80
2022/01/15 09:24:37;;;;;;;;;111.50;87.00;;;;;;;;4697800;30;8877;-81
2022/01/15 09:30:12;;;;;;;;;123.25;91.00;;;;;;;;4701640;30;8893;-82
2022/01/15 09:32:31;;;;;;;;;115.25;93.00;;;;;;;;4703954;30;8845;-81
2022/01/15 09:34:56;;;;;;;;;106.75;93.25;;;;;;;;4704586;30;8871;-80
2022/01/15 09:37:22;;;;;;;;;127.67;99.33;;;;;;;;4706154;30;8996;-81
2022/01/15 09:39:48;;;;;;;;;119.50;99.75;;;;;;;;4704579;30;11319;-81
2022/01/15 09:42:15;;;;;;;;;119.75;98.50;;;;;;;;4704046;30;8852;-80
2022/01/15 09:44:41;;;;;;;;;125.75;93.00;;;;;;;;4694952;30;8946;-81
2022/01/15 09:47:10;;;;;;;;;111.50;96.00;;;;;;;;4701848;30;8897;-81
2022/01/15 09:49:37;;;;;;;;;112.50;96.75;;;;;;;;4702870;30;8857;-81
2022/01/15 09:52:02;;;;;;;;;129.75;98.50;;;;;;;;4701401;30;8919;-81
2022/01/15 09:54:28;;;;;;;;;121.50;94.75;;;;;;;;4694960;30;8903;-81
2022/01/15 09:56:53;;;;;;;;;129.75;105.50;;;;;;;;4697598;30;9624;-84
2022/01/15 09:59:20;;;;;;;;;112.25;101.00;;;;;;;;4704559;30;8894;-82
2022/01/15 10:01:46;;;;;;;;;133.00;105.00;;;;;;;;4693190;30;8840;-84
2022/01/15 10:04:13;;;;;;;;;123.25;100.75;;;;;;;;4690218;30;8888;-83
2022/01/15 10:06:58;;;;;;;;;113.50;95.75;;;;;;;;4690365;30;8887;-83
2022/01/15 10:09:24;;;;;;;;;133.50;104.50;;;;;;;;4699976;30;8863;-84
2022/01/15 10:11:52;;;;;;;;;119.75;100.75;;;;;;;;4696049;30;8854;-84
2022/01/15 10:23:56;;;;;;;;;93.00;85.50;;;;;;;;178317;27;130555533;-93
2022/01/15 10:30:26;;;;;;;;;47.00;36.00;;;;;;;;3;130562816;139560804;-94
2022/01/15 10:37:12;;;;;;;;;79.00;57.50;;;;;;;;3;130555248;139569480;-94
2022/01/15 10:43:39;;;;;;;;;;;;;;;;;;3;117049120;130553392;-91
2022/01/15 10:50:17;;;;;;;;;;;;;;;;;;;;;
2022/01/15 10:57:08;;;;;;;;;80.50;52.50;;;;;;;;3;130552870;139555359;-92
2022/01/15 11:03:49;;;;;;;;;62.00;50.50;;;;;;;;3;130545725;139559522;-91
2022/01/15 11:10:17;;;;;;;;;;;;;;;;;;3;117045146;130546271;-92
2022/01/15 11:17:02;;;;;;;;;83.50;77.00;;;;;;;;3;117059891;130549579;-92
2022/01/15 11:23:30;;;;;;;;;80.00;67.50;;;;;;;;3;130560179;139550164;-95
2022/01/15 11:30:12;;;;;;;;;65.00;53.50;;;;;;;;3;130548603;139558238;-95
2022/01/15 11:36:39;;;;;;;;;;;;;;;;;;3;117045793;130556092;-95
2022/01/15 11:43:19;;;;;;;;;87.50;79.00;;;;;;;;3;117060809;130549634;-95
2022/01/15 11:50:16;;;;;;;;;71.50;60.50;;;;;;;;3;130565701;139555979;-88
2022/01/15 11:56:59;;;;;;;;;68.00;50.00;;;;;;;;3;130555016;139421014;-89
2022/01/15 12:02:58;;;;;;;;;;;;;;;;;;3;117050126;129289718;-87
2022/01/15 12:08:01;;;;;;;;;67.00;42.50;;;;;;;;3501365;28;84432482;-89
2022/01/15 12:14:52;;;;;;;;;23.50;21.00;;;;;;;;3;129526050;137242083;-90
2022/01/15 12:20:34;;;;;;;;;;;;;;;;;;3;117048654;124977432;-90
2022/01/15 12:26:59;;;;;;;;;76.50;74.00;;;;;;;;3;112256941;130455422;-90
2022/01/15 12:33:05;;;;;;;;;;;;;;;;;;3;117725287;130550669;-90
2022/01/15 12:39:47;;;;;;;;;75.00;68.50;;;;;;;;3;130555234;139574175;-88
2022/01/15 12:46:19;;;;;;;;;;;;;;;;;;3;117047840;130554691;-87
2022/01/15 12:52:37;;;;;;;;;71.50;56.00;;;;;;;;3;116227287;130555150;-89
2022/01/15 12:59:04;;;;;;;;;52.50;41.00;;;;;;;;3;130565550;139559397;-88
2022/01/15 13:05:53;;;;;;;;;71.00;55.00;;;;;;;;3;130553913;139564670;-89
2022/01/15 13:12:21;;;;;;;;;;;;;;;;;;3;117049327;130554169;-88
2022/01/15 13:18:42;;;;;;;;;79.00;57.00;;;;;;;;3;117065387;130554922;-88
2022/01/15 13:25:10;;;;;;;;;69.50;53.50;;;;;;;;3;130562808;139557528;-87
2022/01/15 13:31:50;;;;;;;;;51.50;44.00;;;;;;;;3;130557077;139566468;-88
2022/01/15 13:43:28;;;;;;;;;97.50;82.00;;;;;;;;3;105443231;130264199;-90
2022/01/15 13:57:02;;;;;;;;;68.00;53.50;;;;;;;;3;130555203;139569155;-92
2022/01/15 14:08:24;;;;;;;;;73.00;53.00;;;;;;;;3;123669376;130556554;-92
2022/01/15 14:27:20;;;;;;;;;;;;;;;;;;;;;
2022/01/15 14:33:04;;;;;;;;;88.50;75.50;;;;;;;;3;108866696;115363902;-94
2022/01/15 14:45:06;;;;;;;;;107.00;95.50;;;;;;;;3;97214976;109529172;-91
2022/01/15 14:48:07;;;;;;;;;124.00;104.67;;;;;;;;3159503;29;48837722;-94
2022/01/15 14:51:37;;;;;;;;;129.00;112.25;;;;;;;;4665150;29;3083878;-91
2022/01/15 14:59:37;;;;;;;;;133.25;109.00;;;;;;;;5352405;24;30382;-88
2022/01/15 15:02:05;;;;;;;;;127.33;108.00;;;;;;;;4757907;29;28350;-88
2022/01/15 15:04:30;;;;;;;;;128.50;113.00;;;;;;;;4758672;29;28371;-92
2022/01/15 15:06:55;;;;;;;;;125.33;109.00;;;;;;;;4763129;29;30617;-88
2022/01/15 15:09:21;;;;;;;;;103.67;99.00;;;;;;;;4746531;29;30624;-89
2022/01/15 15:11:46;;;;;;;;;118.33;105.33;;;;;;;;4751772;30;28634;-89
2022/01/15 15:14:12;;;;;;;;;112.50;95.75;;;;;;;;4751389;29;28832;-90
2022/01/15 15:16:37;;;;;;;;;121.00;99.00;;;;;;;;4754225;30;30665;-90
2022/01/15 15:19:02;;;;;;;;;126.00;103.67;;;;;;;;4749983;30;30533;-92
2022/01/15 15:21:29;;;;;;;;;113.00;94.67;;;;;;;;4747047;30;29572;-89
2022/01/15 15:23:56;;;;;;;;;101.75;92.00;;;;;;;;4753444;30;28558;-90
2022/01/15 15:26:21;;;;;;;;;103.00;87.25;;;;;;;;4746671;30;28803;-89
2022/01/15 15:28:49;;;;;;;;;91.67;77.67;;;;;;;;4754862;30;28499;-89
2022/01/15 15:31:14;;;;;;;;;88.25;70.25;;;;;;;;4753955;30;28569;-89
2022/01/15 15:33:45;;;;;;;;;89.00;74.00;;;;;;;;4755409;29;28457;-87
2022/01/15 15:36:11;;;;;;;;;90.00;73.50;;;;;;;;4755433;30;28247;-87
2022/01/15 15:38:39;;;;;;;;;92.75;75.75;;;;;;;;4754907;30;28325;-87
2022/01/15 15:41:04;;;;;;;;;91.25;70.50;;;;;;;;4749805;30;28820;-89
2022/01/15 15:43:29;;;;;;;;;88.75;68.25;;;;;;;;4755195;30;28337;-89
2022/01/15 15:45:54;;;;;;;;;90.00;74.33;;;;;;;;4755099;30;28336;-88
2022/01/15 15:48:20;;;;;;;;;89.33;69.33;;;;;;;;4746622;30;31194;-91
2022/01/15 15:50:45;;;;;;;;;86.67;70.33;;;;;;;;4755422;30;28454;-89
2022/01/15 15:53:11;;;;;;;;;91.00;72.50;;;;;;;;4752440;30;28468;-88
2022/01/15 15:55:36;;;;;;;;;94.75;77.75;;;;;;;;4745327;30;28449;-88
2022/01/15 15:58:01;;;;;;;;;93.25;73.00;;;;;;;;4752428;29;31080;-87
2022/01/15 16:00:27;;;;;;;;;88.50;70.75;;;;;;;;4744232;30;28325;-87
2022/01/15 16:02:52;;;;;;;;;90.25;70.25;;;;;;;;4750260;30;28403;-87
2022/01/15 16:05:17;;;;;;;;;89.67;67.33;;;;;;;;4749192;29;29206;-88
2022/01/15 16:07:43;;;;;;;;;93.00;67.67;;;;;;;;4754033;30;28440;-89
2022/01/15 16:10:08;;;;;;;;;86.00;65.00;;;;;;;;4756199;29;28330;-89
2022/01/15 16:12:34;;;;;;;;;82.50;61.00;;;;;;;;4751053;29;28464;-89
2022/01/15 16:14:59;;;;;;;;;88.25;68.25;;;;;;;;4747747;29;27897;-87
2022/01/15 16:17:28;;;;;;;;;88.25;64.25;;;;;;;;4752538;29;28425;-89
2022/01/15 16:19:53;;;;;;;;;85.75;64.00;;;;;;;;4745153;30;28707;-89
2022/01/15 16:22:19;;;;;;;;;83.75;62.00;;;;;;;;4748742;30;28718;-88
2022/01/15 16:24:45;;;;;;;;;84.00;62.75;;;;;;;;4750803;29;28570;-88
2022/01/15 16:27:10;;;;;;;;;80.50;62.75;;;;;;;;4753211;30;29473;-87
2022/01/15 16:29:36;;;;;;;;;87.33;63.67;;;;;;;;4744131;29;28487;-88
2022/01/15 16:32:01;;;;;;;;;83.75;65.25;;;;;;;;4753550;29;28970;-89
2022/01/15 16:34:27;;;;;;;;;88.25;62.00;;;;;;;;4753167;30;28469;-89
2022/01/15 16:36:54;;;;;;;;;85.00;65.00;;;;;;;;4750993;30;29949;-88
2022/01/15 16:39:19;;;;;;;;;83.00;61.75;;;;;;;;4359231;29;12033941;-88
2022/01/15 16:41:44;;;;;;;;;81.25;62.00;;;;;;;;4663128;30;2576492;-89
2022/01/15 16:44:10;;;;;;;;;82.00;59.33;;;;;;;;4753825;30;28457;-89
2022/01/15 16:46:35;;;;;;;;;82.50;60.50;;;;;;;;4755113;30;28616;-90
2022/01/15 16:49:00;;;;;;;;;83.00;59.25;;;;;;;;4754855;29;28394;-88
2022/01/15 16:51:26;;;;;;;;;76.00;55.33;;;;;;;;4746799;30;28356;-89
2022/01/15 16:53:51;;;;;;;;;80.00;59.00;;;;;;;;4754478;29;28498;-88
2022/01/15 16:56:16;;;;;;;;;76.50;56.50;;;;;;;;4648325;30;3251235;-88
2022/01/15 16:58:41;;;;;;;;;83.67;59.67;;;;;;;;4748650;29;30092;-89
2022/01/15 17:01:07;;;;;;;;;78.00;57.67;;;;;;;;4761756;29;28396;-88
2022/01/15 17:03:33;;;;;;;;;83.75;58.00;;;;;;;;4740428;30;28344;-89
2022/01/15 17:05:59;;;;;;;;;82.75;60.25;;;;;;;;4754616;29;28322;-88
2022/01/15 17:08:25;;;;;;;;;81.75;60.00;;;;;;;;4741603;30;29778;-89
2022/01/15 17:10:50;;;;;;;;;80.50;59.25;;;;;;;;4753301;30;28621;-89
2022/01/15 17:13:16;;;;;;;;;85.00;58.00;;;;;;;;4752389;29;28497;-88
2022/01/15 17:15:41;;;;;;;;;71.50;58.00;;;;;;;;4607635;30;3513226;-88
2022/01/15 17:18:06;;;;;;;;;79.00;58.67;;;;;;;;4752814;30;29680;-88
2022/01/15 17:20:31;;;;;;;;;88.00;74.33;;;;;;;;4749162;29;28552;-89
2022/01/15 17:22:57;;;;;;;;;84.50;59.75;;;;;;;;4742972;29;28387;-89
2022/01/15 17:25:22;;;;;;;;;84.75;62.25;;;;;;;;4751405;29;28727;-88
2022/01/15 17:27:47;;;;;;;;;84.50;62.00;;;;;;;;4507182;30;6640898;-89
2022/01/15 17:30:13;;;;;;;;;92.67;69.00;;;;;;;;4748297;30;28519;-88
2022/01/15 17:32:38;;;;;;;;;89.25;66.00;;;;;;;;4748063;29;28364;-90
2022/01/15 17:35:03;;;;;;;;;83.50;60.50;;;;;;;;4589495;29;4885371;-90
2022/01/15 17:37:29;;;;;;;;;81.50;59.75;;;;;;;;4740775;29;28561;-89
2022/01/15 17:39:54;;;;;;;;;78.50;59.00;;;;;;;;4741962;30;28583;-89
2022/01/15 17:42:20;;;;;;;;;76.00;54.25;;;;;;;;4753957;30;28428;-89
2022/01/15 17:44:47;;;;;;;;;80.00;59.75;;;;;;;;4759775;29;28482;-90
2022/01/15 17:47:12;;;;;;;;;81.50;57.00;;;;;;;;4754575;29;28695;-90
2022/01/15 17:49:37;;;;;;;;;92.25;66.25;;;;;;;;4755060;29;28577;-90
2022/01/15 17:52:03;;;;;;;;;78.00;54.67;;;;;;;;4750633;30;28565;-90
2022/01/15 17:54:28;;;;;;;;;79.00;62.00;;;;;;;;4745998;30;28845;-89
2022/01/15 17:56:54;;;;;;;;;82.25;61.75;;;;;;;;4755226;29;28362;-92
2022/01/15 17:59:19;;;;;;;;;76.67;58.00;;;;;;;;4759794;29;28280;-92
2022/01/15 18:01:46;;;;;;;;;82.00;60.33;;;;;;;;4747883;29;28319;-91
2022/01/15 18:04:11;;;;;;;;;71.00;55.25;;;;;;;;4752670;30;28673;-91
2022/01/15 18:06:37;;;;;;;;;76.00;54.00;;;;;;;;4753721;30;28588;-91
2022/01/15 18:09:02;;;;;;;;;79.67;56.67;;;;;;;;4757027;29;28510;-94
2022/01/15 18:11:27;;;;;;;;;82.67;58.00;;;;;;;;4746657;30;28577;-94
2022/01/15 18:13:55;;;;;;;;;83.00;61.00;;;;;;;;4753775;29;28831;-94